Time;durP1;ratioP1;P1;durP2;ratioP2;P2;SDS_P1;SDS_P2;PMS_P1;PMS_P2;Temp;Humidity;BMP_temperature;BMP_pressure;BME280_temperature;BME280_humidity;BME280_pressure;Samples;Min_cycle;Max_cycle;Signal;HPM_P1;HPM_P2
2022/04/28 00:01:59;;;;;;;15.35;9.07;;;;;;;-144.47;51.90;53334.78;5061592;28;20047;-69
2022/04/28 00:04:24;;;;;;;14.32;8.82;;;;;;;-144.47;51.99;53358.63;5066456;28;20056;-67
2022/04/28 00:06:50;;;;;;;17.83;9.25;;;;;;;-144.47;52.24;53360.63;5049029;28;20020;-70
2022/04/28 00:09:15;;;;;;;14.32;9.63;;;;;;;-144.47;52.39;53412.25;5070717;28;20452;-74
2022/04/28 00:11:41;;;;;;;15.88;9.25;;;;;;;-144.47;52.60;53364.59;5061402;28;20112;-72
2022/04/28 00:14:09;;;;;;;16.80;9.52;;;;;;;-144.47;52.98;53372.53;5064224;28;20172;-70
2022/04/28 00:16:35;;;;;;;15.30;9.60;;;;;;;-144.47;53.22;53346.72;5065929;28;20047;-69
2022/04/28 00:19:01;;;;;;;15.02;8.63;;;;;;;-144.47;53.58;53376.50;5066844;28;20021;-69
2022/04/28 00:21:27;;;;;;;19.48;10.05;;;;;;;-144.47;54.06;53356.63;5065661;28;20558;-74
2022/04/28 00:23:52;;;;;;;15.13;8.93;;;;;;;-144.47;54.15;53378.50;5066321;28;20747;-71
2022/04/28 00:26:17;;;;;;;16.17;9.18;;;;;;;-144.47;54.63;53366.56;5069781;28;20055;-72
2022/04/28 00:28:42;;;;;;;18.52;9.65;;;;;;;-144.47;54.75;53334.78;5061742;28;20029;-70
2022/04/28 00:31:08;;;;;;;15.90;9.05;;;;;;;-144.47;54.79;53390.41;5070445;28;20024;-71
2022/04/28 00:33:33;;;;;;;19.98;9.90;;;;;;;-144.47;54.75;53372.53;5061616;28;20445;-69
2022/04/28 00:35:58;;;;;;;15.25;10.00;;;;;;;-144.47;54.53;53368.56;5063767;28;20510;-68
2022/04/28 00:38:24;;;;;;;13.68;8.65;;;;;;;-144.47;54.58;53424.19;5068546;28;20040;-70
2022/04/28 00:40:49;;;;;;;21.15;10.35;;;;;;;-144.47;54.12;53352.66;5066655;28;20371;-71
2022/04/28 00:43:20;;;;;;;14.75;9.20;;;;;;;-144.47;54.59;53342.72;5067844;28;20056;-71
2022/04/28 00:45:50;;;;;;;15.98;9.77;;;;;;;-144.47;54.10;53384.44;5041320;28;20344;-69
2022/04/28 00:51:02;;;;;;;22.20;9.05;;;;;;;-144.47;54.14;53344.72;5061472;28;20528;-73
2022/04/28 00:53:29;;;;;;;16.55;9.75;;;;;;;-144.47;54.18;53376.50;5065646;28;20029;-70
2022/04/28 00:55:57;;;;;;;16.45;10.13;;;;;;;-144.47;54.33;53336.78;5065294;28;20128;-70
2022/04/28 00:58:23;;;;;;;20.50;9.68;;;;;;;-144.47;54.72;53334.78;5068945;28;20490;-72
2022/04/28 01:00:48;;;;;;;18.60;9.95;;;;;;;-144.47;54.13;53376.50;5068419;28;20028;-69
2022/04/28 01:03:13;;;;;;;21.80;10.43;;;;;;;-144.47;54.26;53382.47;5047823;28;20569;-67
2022/04/28 01:05:39;;;;;;;20.65;10.27;;;;;;;-144.47;53.89;53366.56;5068491;28;20597;-68
2022/04/28 01:08:06;;;;;;;15.65;9.18;;;;;;;-144.47;53.47;53346.72;5063279;28;20036;-67
2022/04/28 01:10:32;;;;;;;19.13;9.73;;;;;;;-144.47;53.64;53394.38;5048985;28;20060;-70
2022/04/28 01:12:57;;;;;;;16.15;9.60;;;;;;;-144.47;53.77;53382.47;5059747;28;20017;-67
2022/04/28 01:15:23;;;;;;;16.70;9.98;;;;;;;-144.47;54.27;53374.50;5063779;28;20068;-71
2022/04/28 01:17:48;;;;;;;17.02;9.38;;;;;;;-144.47;54.04;53356.63;5048911;28;20555;-71
2022/04/28 01:20:13;;;;;;;24.65;10.23;;;;;;;-144.47;54.12;53368.56;5061944;28;20063;-68
2022/04/28 01:22:40;;;;;;;19.08;9.75;;;;;;;-144.47;54.32;53364.59;5045484;28;20064;-72
2022/04/28 01:25:08;;;;;;;17.33;10.48;;;;;;;-144.47;54.42;53408.28;5064746;28;20557;-69
2022/04/28 01:27:37;;;;;;;22.90;10.80;;;;;;;-144.47;54.49;53392.41;5058747;28;20024;-67
2022/04/28 01:30:10;;;;;;;22.05;11.10;;;;;;;-144.47;54.83;53348.69;5065794;28;20064;-69
2022/04/28 01:32:36;;;;;;;18.42;10.30;;;;;;;-144.47;55.10;53400.34;5054271;28;20033;-68
2022/04/28 01:35:01;;;;;;;19.35;11.25;;;;;;;-144.47;55.30;53342.72;5048353;28;20121;-68
2022/04/28 01:37:26;;;;;;;17.95;10.82;;;;;;;-144.47;55.27;53380.47;5047915;28;20040;-67
2022/04/28 01:39:53;;;;;;;19.88;11.48;;;;;;;-144.47;55.33;53370.53;5062510;28;20146;-69
2022/04/28 01:42:18;;;;;;;19.85;11.60;;;;;;;-144.47;55.32;53402.31;5066514;28;20056;-71
2022/04/28 01:44:44;;;;;;;20.80;11.75;;;;;;;-144.47;55.50;53364.59;5054801;28;20105;-69
2022/04/28 01:47:09;;;;;;;18.08;11.07;;;;;;;-144.47;55.76;53386.44;5065383;28;20116;-69
2022/04/28 01:49:35;;;;;;;21.13;10.82;;;;;;;-144.47;56.03;53396.38;5059531;28;20048;-70
2022/04/28 01:54:59;;;;;;;18.30;11.10;;;;;;;-144.47;56.63;53380.47;5063634;28;20067;-68
2022/04/28 01:57:26;;;;;;;19.42;11.20;;;;;;;-144.47;56.83;53346.72;5056769;28;20532;-69
2022/04/28 01:59:51;;;;;;;19.85;11.80;;;;;;;-144.47;56.74;53366.56;5063360;28;20054;-68
2022/04/28 02:02:17;;;;;;;18.83;11.05;;;;;;;-144.47;57.01;53340.75;5061289;28;20039;-68
2022/04/28 02:04:42;;;;;;;20.60;11.95;;;;;;;-144.47;57.11;53400.34;5064319;28;20028;-70
2022/04/28 02:07:08;;;;;;;20.50;12.43;;;;;;;-144.47;57.36;53374.50;5064822;28;20023;-71
2022/04/28 02:09:33;;;;;;;25.60;12.32;;;;;;;-144.47;57.52;53358.63;5042332;28;20028;-72
2022/04/28 02:11:59;;;;;;;23.83;11.43;;;;;;;-144.47;57.81;53372.53;5062303;28;20098;-68
2022/04/28 02:14:24;;;;;;;29.58;12.02;;;;;;;-144.47;57.68;53368.56;5063196;28;20101;-74
2022/04/28 02:16:50;;;;;;;19.45;11.70;;;;;;;-144.47;57.81;53376.50;5062809;28;20036;-74
2022/04/28 02:19:16;;;;;;;20.63;11.75;;;;;;;-144.47;57.62;53366.56;5062111;28;20024;-69
2022/04/28 02:21:41;;;;;;;24.48;12.52;;;;;;;-144.47;57.91;53368.56;5065417;28;20021;-68
2022/04/28 02:24:10;;;;;;;19.70;12.52;;;;;;;-144.47;58.23;53344.72;5063077;28;20078;-72
2022/04/28 02:26:35;;;;;;;23.55;12.20;;;;;;;-144.47;58.27;53352.66;5065814;28;20028;-68
2022/04/28 02:29:00;;;;;;;22.15;11.45;;;;;;;-144.47;57.86;53380.47;5042830;28;20056;-71
2022/04/28 02:31:25;;;;;;;21.13;12.43;;;;;;;-144.47;58.24;53394.38;5057917;28;20091;-70
2022/04/28 02:33:51;;;;;;;29.27;13.57;;;;;;;-144.47;58.04;53378.50;5058715;28;20028;-71
2022/04/28 02:36:16;;;;;;;24.83;13.05;;;;;;;-144.47;58.21;53360.63;5062248;28;20348;-68
2022/04/28 02:38:41;;;;;;;22.98;12.38;;;;;;;-144.47;58.15;53390.41;5044671;28;20054;-69
2022/04/28 02:41:07;;;;;;;23.75;12.13;;;;;;;-144.47;58.42;53352.66;5061387;28;20131;-71
2022/04/28 02:43:32;;;;;;;21.63;11.98;;;;;;;-144.47;58.31;53378.50;5059044;28;20029;-69
2022/04/28 02:45:58;;;;;;;20.25;12.13;;;;;;;-144.47;58.04;53372.53;5057580;28;20471;-69
2022/04/28 02:48:24;;;;;;;23.15;12.27;;;;;;;-144.47;58.03;53368.56;5066141;28;20537;-71
2022/04/28 02:50:49;;;;;;;19.27;11.98;;;;;;;-144.47;57.51;53368.56;5066177;28;20033;-69
2022/04/28 02:53:15;;;;;;;20.33;12.13;;;;;;;-144.47;57.41;53380.47;5047149;28;20120;-70
2022/04/28 02:55:40;;;;;;;19.50;11.10;;;;;;;-144.47;57.36;53356.63;5060324;28;20028;-68
2022/04/28 02:58:08;;;;;;;24.60;11.73;;;;;;;-144.47;57.25;53364.59;5062845;28;20037;-71
2022/04/28 03:00:34;;;;;;;27.02;11.82;;;;;;;-144.47;57.24;53366.56;5063809;28;20039;-70
2022/04/28 03:02:59;;;;;;;24.48;12.05;;;;;;;-144.47;57.38;53356.63;5043067;28;20055;-68
2022/04/28 03:05:24;;;;;;;24.80;10.45;;;;;;;-144.47;57.16;53404.31;5059641;28;20043;-70
2022/04/28 03:10:49;;;;;;;20.40;11.23;;;;;;;-144.47;57.14;53358.63;5064760;28;20591;-70
2022/04/28 03:13:17;;;;;;;18.83;10.73;;;;;;;-144.47;57.14;53406.31;5058884;28;20606;-68
2022/04/28 03:15:43;;;;;;;21.88;11.70;;;;;;;-144.47;56.68;53376.50;5061863;28;20062;-71
2022/04/28 03:18:08;;;;;;;18.85;10.73;;;;;;;-144.47;56.94;53410.28;5047540;28;20527;-69
2022/04/28 03:20:33;;;;;;;20.23;10.65;;;;;;;-144.47;56.91;53376.50;5058129;28;20055;-64
2022/04/28 03:22:59;;;;;;;27.65;10.80;;;;;;;-144.47;56.77;53392.41;5065065;28;20039;-73
2022/04/28 03:25:24;;;;;;;17.25;9.93;;;;;;;-144.47;57.12;53352.66;5061087;28;20127;-68
2022/04/28 03:27:49;;;;;;;22.13;10.60;;;;;;;-144.47;57.01;53404.31;5059063;28;20030;-69
2022/04/28 03:30:15;;;;;;;25.27;9.85;;;;;;;-144.47;56.88;53384.44;5046459;28;20613;-69
2022/04/28 03:32:42;;;;;;;18.20;10.25;;;;;;;-144.47;56.90;53394.38;5051393;28;20385;-66
2022/04/28 03:35:10;;;;;;;21.95;10.32;;;;;;;-144.47;56.97;53396.38;5064826;28;20448;-70
2022/04/28 03:37:36;;;;;;;19.65;10.32;;;;;;;-144.47;57.10;53372.53;5065756;28;20486;-73
2022/04/28 03:40:01;;;;;;;24.85;11.13;;;;;;;-144.47;57.14;53372.53;5061625;28;20025;-67
2022/04/28 03:42:27;;;;;;;17.15;10.93;;;;;;;-144.47;57.09;53404.31;5060131;28;20140;-69
2022/04/28 03:44:53;;;;;;;24.75;11.30;;;;;;;-144.47;57.20;53412.25;5039151;28;20034;-70
2022/04/28 03:47:19;;;;;;;18.50;11.35;;;;;;;-144.47;57.07;53380.47;5045132;28;20484;-71
2022/04/28 03:49:44;;;;;;;22.45;10.77;;;;;;;-144.47;57.09;53388.41;5043057;28;20557;-70
2022/04/28 03:52:10;;;;;;;20.60;11.13;;;;;;;-144.47;57.20;53408.28;5065298;28;20124;-68
2022/04/28 03:54:35;;;;;;;21.55;11.52;;;;;;;-144.47;57.44;53378.50;5061849;28;20089;-70
2022/04/28 03:57:01;;;;;;;18.92;11.40;;;;;;;-144.47;57.40;53392.41;5064394;28;20111;-71
2022/04/28 03:59:26;;;;;;;23.33;10.88;;;;;;;-144.47;57.13;53386.44;5065405;28;20520;-68
2022/04/28 04:01:52;;;;;;;19.17;10.52;;;;;;;-144.47;56.93;53344.72;5064044;28;20107;-67
2022/04/28 04:04:17;;;;;;;27.73;10.77;;;;;;;-144.47;57.15;53372.53;5066012;28;20063;-66
2022/04/28 04:06:43;;;;;;;25.27;10.73;;;;;;;-144.47;57.19;53408.28;5064735;28;20028;-67
2022/04/28 04:09:08;;;;;;;21.20;10.68;;;;;;;-144.47;57.31;53372.53;5066818;28;20029;-69
2022/04/28 04:11:33;;;;;;;24.48;10.90;;;;;;;-144.47;57.13;53356.63;5061920;28;20041;-72
2022/04/28 04:13:59;;;;;;;21.75;11.30;;;;;;;-144.47;57.42;53372.53;5061869;28;20551;-68
2022/04/28 04:16:24;;;;;;;21.63;10.88;;;;;;;-144.47;56.93;53352.66;5067569;28;20044;-70
2022/04/28 04:18:49;;;;;;;16.60;10.50;;;;;;;-144.47;56.81;53380.47;5059365;28;20064;-67
2022/04/28 04:21:15;;;;;;;20.92;11.27;;;;;;;-144.47;57.06;53396.38;5066074;28;20039;-71
2022/04/28 04:23:40;;;;;;;24.00;10.75;;;;;;;-144.47;57.11;53346.72;5063339;28;20089;-69
2022/04/28 04:26:05;;;;;;;16.95;9.95;;;;;;;-144.47;57.09;53410.28;5068719;28;20034;-69
2022/04/28 04:28:32;;;;;;;20.40;10.30;;;;;;;-144.47;57.24;53394.38;5062451;28;20028;-71
2022/04/28 04:33:42;;;;;;;17.85;10.35;;;;;;;-144.47;57.08;53352.66;5062944;28;20040;-70
2022/04/28 04:36:07;;;;;;;22.55;11.38;;;;;;;-144.47;57.25;53382.47;5058277;28;20033;-71
2022/04/28 04:38:32;;;;;;;19.33;10.23;;;;;;;-144.47;57.61;53382.47;5062721;28;20040;-71
2022/04/28 04:40:58;;;;;;;26.48;10.93;;;;;;;-144.47;57.31;53380.47;5060975;28;20502;-70
2022/04/28 04:43:23;;;;;;;19.55;10.82;;;;;;;-144.47;57.33;53384.44;5060833;28;20031;-69
2022/04/28 04:45:48;;;;;;;23.13;11.27;;;;;;;-144.47;57.75;53362.59;5064210;28;20029;-71
2022/04/28 04:48:14;;;;;;;21.08;10.52;;;;;;;-144.47;56.88;53346.72;5050837;28;20771;-70
2022/04/28 04:50:40;;;;;;;20.15;11.55;;;;;;;-144.47;57.31;53398.34;5067791;28;20104;-72
2022/04/28 04:53:06;;;;;;;21.52;10.85;;;;;;;-144.47;57.40;53366.56;5067187;28;20028;-70
2022/04/28 04:55:36;;;;;;;27.85;11.48;;;;;;;-144.47;57.07;53396.38;5064441;28;20124;-72
2022/04/28 04:58:02;;;;;;;19.42;10.45;;;;;;;-144.47;56.89;53358.63;5060866;28;20084;-68
2022/04/28 05:00:28;;;;;;;22.55;11.20;;;;;;;-144.47;57.03;53370.53;5050467;28;20116;-68
2022/04/28 05:02:53;;;;;;;21.00;10.13;;;;;;;-144.47;56.54;53380.47;5050093;28;20132;-70
2022/04/28 05:05:18;;;;;;;25.75;10.05;;;;;;;-144.47;56.30;53380.47;5060724;28;20029;-68
2022/04/28 05:07:44;;;;;;;23.63;10.93;;;;;;;-144.47;56.15;53374.50;5059974;28;20036;-72
2022/04/28 05:10:09;;;;;;;20.25;10.10;;;;;;;-144.47;55.70;53366.56;5062514;28;20029;-70
2022/04/28 05:12:35;;;;;;;24.85;10.10;;;;;;;-144.47;55.56;53392.41;5044576;28;20085;-69
2022/04/28 05:15:01;;;;;;;22.85;9.75;;;;;;;-144.47;56.19;53362.59;5059900;28;20035;-69
2022/04/28 05:17:26;;;;;;;20.35;10.77;;;;;;;-144.47;56.25;53354.66;5065874;28;20032;-70
2022/04/28 05:19:52;;;;;;;21.60;9.75;;;;;;;-144.47;56.23;53346.72;5057841;28;20160;-73
2022/04/28 05:22:17;;;;;;;20.70;10.93;;;;;;;-144.47;56.11;53408.28;5060801;28;20135;-70
2022/04/28 05:24:43;;;;;;;17.63;9.35;;;;;;;-144.47;56.13;53374.50;5067853;28;20049;-70
2022/04/28 05:27:08;;;;;;;17.80;9.93;;;;;;;-144.47;55.86;53366.56;5067790;28;20171;-69
2022/04/28 05:29:33;;;;;;;20.83;11.13;;;;;;;-144.47;56.18;53386.44;5066223;28;20127;-70
2022/04/28 05:31:59;;;;;;;19.70;10.38;;;;;;;-144.47;55.94;53408.28;5060967;28;20047;-68
2022/04/28 05:34:24;;;;;;;25.95;10.63;;;;;;;-144.47;56.11;53386.44;5059456;28;20040;-68
2022/04/28 05:36:53;;;;;;;21.73;10.52;;;;;;;-144.47;55.88;53374.50;5048065;28;20028;-68
2022/04/28 05:39:18;;;;;;;22.67;9.88;;;;;;;-144.47;56.23;53394.38;5066403;28;20135;-69
2022/04/28 05:46:54;;;;;;;18.00;10.13;;;;;;;-144.47;56.14;53394.38;5064313;28;20039;-67
2022/04/28 05:49:21;;;;;;;17.63;9.70;;;;;;;-144.47;56.04;53354.66;5059691;28;20020;-69
2022/04/28 05:51:46;;;;;;;18.20;9.80;;;;;;;-144.47;55.70;53328.81;5064030;28;20024;-68
2022/04/28 05:54:12;;;;;;;31.42;10.55;;;;;;;-144.47;55.65;53376.50;5058589;28;20033;-68
2022/04/28 05:56:38;;;;;;;17.38;9.40;;;;;;;-144.47;55.81;53372.53;5061284;28;20048;-68
2022/04/28 05:59:03;;;;;;;20.45;9.48;;;;;;;-144.47;55.47;53386.44;5061392;28;20549;-68
2022/04/28 06:01:29;;;;;;;19.30;9.30;;;;;;;-144.47;54.99;53324.84;5068647;28;20031;-70
2022/04/28 06:03:54;;;;;;;18.50;10.07;;;;;;;-144.47;55.26;53376.50;5062672;28;20024;-69
2022/04/28 06:06:20;;;;;;;19.95;9.77;;;;;;;-144.47;55.45;53362.59;5059332;28;20025;-67
2022/04/28 06:08:45;;;;;;;22.15;10.60;;;;;;;-144.47;55.17;53336.78;5062247;28;20398;-68
2022/04/28 06:11:11;;;;;;;25.25;9.85;;;;;;;-144.47;55.21;53346.72;5059812;28;20259;-67
2022/04/28 06:13:37;;;;;;;23.17;9.55;;;;;;;-144.47;55.17;53332.81;5064022;28;20064;-68
2022/04/28 06:16:03;;;;;;;21.15;9.60;;;;;;;-144.47;55.27;53372.53;5065722;28;20056;-67
2022/04/28 06:18:28;;;;;;;17.83;9.57;;;;;;;-144.47;55.07;53372.53;5064467;28;20524;-68
2022/04/28 06:20:53;;;;;;;14.20;9.23;;;;;;;-144.47;55.23;53346.72;5062572;28;20028;-67
2022/04/28 06:23:19;;;;;;;17.95;10.68;;;;;;;-144.47;55.08;53344.72;5055135;28;20044;-66
2022/04/28 06:25:44;;;;;;;16.95;9.88;;;;;;;-144.47;55.21;53408.28;5056923;28;20033;-67
2022/04/28 06:28:11;;;;;;;18.75;9.23;;;;;;;-144.47;55.03;53380.47;5066586;28;20442;-67
2022/04/28 06:30:36;;;;;;;19.42;9.90;;;;;;;-144.47;55.15;53338.75;5057037;28;20025;-66
2022/04/28 06:33:03;;;;;;;18.15;9.93;;;;;;;-144.47;55.00;53358.63;5057918;28;20037;-65
2022/04/28 06:35:29;;;;;;;22.88;9.40;;;;;;;-144.47;55.22;53384.44;5054825;28;20043;-67
2022/04/28 06:37:54;;;;;;;23.73;10.85;;;;;;;-144.47;55.14;53356.63;5064070;28;20049;-66
2022/04/28 06:40:19;;;;;;;32.22;11.20;;;;;;;-144.47;55.40;53342.72;5039146;28;20024;-66
2022/04/28 06:42:49;;;;;;;22.30;10.27;;;;;;;-144.47;55.27;53358.63;5049124;28;20079;-69
2022/04/28 06:45:15;;;;;;;21.15;9.35;;;;;;;-144.47;55.31;53384.44;5038915;28;20033;-68
2022/04/28 06:47:40;;;;;;;18.85;9.25;;;;;;;-144.47;54.77;53368.56;5066235;28;20586;-67
2022/04/28 06:50:05;;;;;;;18.92;9.55;;;;;;;-144.47;54.30;53366.56;5053194;28;20120;-67
2022/04/28 06:52:31;;;;;;;17.23;9.48;;;;;;;-144.47;53.68;53346.72;5049013;28;20648;-69
2022/04/28 06:54:56;;;;;;;15.20;8.10;;;;;;;-144.47;52.98;53342.72;5051633;28;20021;-68
2022/04/28 06:57:22;;;;;;;21.23;9.85;;;;;;;-144.47;52.21;53368.56;5050221;28;20041;-67
2022/04/28 06:59:47;;;;;;;19.33;9.65;;;;;;;-144.47;51.60;53376.50;5060548;28;20656;-67
2022/04/28 07:02:12;;;;;;;17.35;9.50;;;;;;;-144.47;51.35;53352.66;5031361;28;20029;-66
2022/04/28 07:04:38;;;;;;;18.38;9.70;;;;;;;-144.47;51.05;53344.72;5050037;28;20040;-68
2022/04/28 07:07:04;;;;;;;20.80;10.02;;;;;;;-144.47;50.83;53308.97;5059421;28;20017;-67
2022/04/28 07:09:29;;;;;;;17.17;9.07;;;;;;;-144.47;50.99;53336.78;5049637;28;20134;-67
2022/04/28 07:11:55;;;;;;;16.63;8.18;;;;;;;-144.47;51.30;53324.84;5049514;28;20498;-68
2022/04/28 07:14:20;;;;;;;19.08;8.65;;;;;;;-144.47;51.86;53366.56;5058849;28;20466;-69
2022/04/28 07:16:45;;;;;;;26.92;9.55;;;;;;;-144.47;52.26;53350.69;5050227;28;20056;-69
2022/04/28 07:19:10;;;;;;;17.00;9.48;;;;;;;-144.47;52.88;53320.88;5055042;28;20324;-65
2022/04/28 07:21:36;;;;;;;25.35;8.82;;;;;;;-144.47;53.20;53318.91;5056066;28;20040;-68
2022/04/28 07:24:01;;;;;;;15.85;8.82;;;;;;;-144.47;52.84;53360.63;5050348;28;20171;-67
2022/04/28 07:26:28;;;;;;;19.38;9.80;;;;;;;-144.47;52.62;53295.06;5032368;28;20040;-67
2022/04/28 07:28:54;;;;;;;24.35;10.15;;;;;;;-144.47;52.63;53366.56;5051280;28;20033;-67
2022/04/28 07:31:19;;;;;;;16.40;9.55;;;;;;;-144.47;52.80;53352.66;5049772;28;20021;-67
2022/04/28 07:33:44;;;;;;;17.50;10.25;;;;;;;-144.47;52.42;53354.66;5055625;28;20024;-68
2022/04/28 07:36:09;;;;;;;20.13;9.82;;;;;;;-144.47;51.97;53330.81;5069053;28;20039;-69
2022/04/28 07:38:35;;;;;;;15.63;9.40;;;;;;;-144.47;52.15;53312.94;5071743;28;20443;-68
2022/04/28 07:41:01;;;;;;;21.67;9.73;;;;;;;-144.47;52.37;53342.72;5059910;28;20598;-68
2022/04/28 07:43:26;;;;;;;22.00;9.98;;;;;;;-144.47;52.17;53366.56;5073591;28;20033;-68
2022/04/28 07:45:51;;;;;;;21.77;10.10;;;;;;;-144.47;52.25;53368.56;5071119;28;20466;-68
2022/04/28 07:48:17;;;;;;;20.38;10.27;;;;;;;-144.47;51.63;53350.69;5073206;28;20089;-69
2022/04/28 07:50:42;;;;;;;20.48;9.48;;;;;;;-144.47;51.55;53303.00;5065652;28;20028;-67
2022/04/28 07:53:07;;;;;;;21.05;9.25;;;;;;;-144.47;51.27;53310.94;5060864;28;20048;-68
2022/04/28 07:55:33;;;;;;;18.83;10.02;;;;;;;-144.47;50.67;53312.94;5072103;28;20094;-66
2022/04/28 07:57:58;;;;;;;21.90;10.10;;;;;;;-144.47;50.05;53330.81;5058379;28;20052;-68
2022/04/28 08:00:24;;;;;;;19.60;10.18;;;;;;;-144.47;49.63;53326.84;5070033;28;20033;-66
2022/04/28 08:02:49;;;;;;;15.43;9.80;;;;;;;-144.47;49.61;53346.72;5065471;28;20043;-68
2022/04/28 08:05:15;;;;;;;21.52;10.13;;;;;;;-144.47;49.35;53338.75;5070321;28;20472;-67
2022/04/28 08:07:40;;;;;;;22.80;10.13;;;;;;;-144.47;49.33;53328.81;5064292;28;20374;-67
2022/04/28 08:10:06;;;;;;;22.95;9.52;;;;;;;-144.47;49.31;53291.09;5071769;28;20432;-69
2022/04/28 08:12:33;;;;;;;28.05;11.25;;;;;;;-144.47;49.52;53336.78;5048659;28;20021;-67
2022/04/28 08:14:58;;;;;;;15.20;8.70;;;;;;;-144.47;49.71;53338.75;5038310;28;20036;-68
2022/04/28 08:17:23;;;;;;;18.83;9.25;;;;;;;-144.47;49.50;53324.84;5068155;28;20053;-68
2022/04/28 08:19:49;;;;;;;21.63;9.93;;;;;;;-144.47;49.75;53322.88;5068838;28;20028;-68
2022/04/28 08:22:14;;;;;;;23.35;9.32;;;;;;;-144.47;49.41;53356.63;5061563;28;20077;-69
2022/04/28 08:24:39;;;;;;;15.63;9.63;;;;;;;-144.47;49.36;53332.81;5063747;28;20081;-68
2022/04/28 08:27:05;;;;;;;20.48;9.45;;;;;;;-144.47;49.55;53318.91;5069803;28;20514;-68
2022/04/28 08:29:30;;;;;;;25.23;10.65;;;;;;;-144.47;49.18;53310.94;5063242;28;20040;-68
2022/04/28 08:31:55;;;;;;;22.13;10.30;;;;;;;-144.47;49.00;53322.88;5059167;28;20086;-66
2022/04/28 08:34:22;;;;;;;19.70;9.40;;;;;;;-144.47;49.15;53314.91;5068500;28;20028;-68
2022/04/28 08:36:48;;;;;;;19.60;9.95;;;;;;;-144.47;49.01;53338.75;5065026;28;20029;-71
2022/04/28 08:39:15;;;;;;;27.38;9.65;;;;;;;-144.47;49.21;53318.91;5069857;28;20107;-68
2022/04/28 08:41:47;;;;;;;21.27;10.07;;;;;;;-144.47;48.41;53318.91;5066152;28;20486;-67
2022/04/28 08:44:23;;;;;;;18.33;9.25;;;;;;;-144.47;48.58;53263.28;5070390;28;20075;-67
2022/04/28 08:46:52;;;;;;;16.45;9.77;;;;;;;-144.47;48.40;53340.75;5068071;28;20458;-67
2022/04/28 08:49:32;;;;;;;14.27;9.05;;;;;;;-144.47;47.70;53308.97;5066047;28;20028;-69
2022/04/28 08:51:59;;;;;;;21.63;9.63;;;;;;;-144.47;47.99;53332.81;5068674;28;20023;-68
2022/04/28 08:54:26;;;;;;;20.15;9.77;;;;;;;-144.47;47.40;53295.06;5063490;28;20091;-68
2022/04/28 08:56:54;;;;;;;23.35;9.75;;;;;;;-144.47;46.90;53312.94;5070552;28;20037;-68
2022/04/28 08:59:21;;;;;;;20.13;10.02;;;;;;;-144.47;47.60;53316.91;5067258;28;20106;-69
2022/04/28 09:01:47;;;;;;;14.45;10.43;;;;;;;-144.47;47.50;53328.81;5044260;28;20040;-69
2022/04/28 09:04:13;;;;;;;41.17;10.65;;;;;;;-144.47;47.45;53310.94;5064095;28;20036;-67
2022/04/28 09:06:41;;;;;;;18.60;9.95;;;;;;;-144.47;46.67;53295.06;5064675;28;20382;-68
2022/04/28 09:09:12;;;;;;;23.70;10.32;;;;;;;-144.47;46.43;53305.00;5069353;28;20044;-68
2022/04/28 09:11:40;;;;;;;17.00;9.32;;;;;;;-144.47;46.13;53297.03;5063908;28;20406;-68
2022/04/28 09:14:10;;;;;;;17.45;9.90;;;;;;;-144.47;46.20;53297.03;5066214;28;20509;-69
2022/04/28 09:16:56;;;;;;;21.10;10.70;;;;;;;-144.47;46.21;53326.84;5065368;28;20040;-67
2022/04/28 09:19:22;;;;;;;21.33;10.68;;;;;;;-144.47;45.88;53308.97;5055125;28;20025;-68
2022/04/28 09:21:50;;;;;;;20.70;10.70;;;;;;;-144.47;45.43;53265.25;5066356;28;20017;-70
2022/04/28 09:24:16;;;;;;;20.02;9.77;;;;;;;-144.47;44.78;53293.06;5070140;28;20028;-68
2022/04/28 09:26:41;;;;;;;14.93;9.23;;;;;;;-144.47;44.54;53281.16;5060247;28;20033;-68
2022/04/28 09:29:10;;;;;;;20.50;10.05;;;;;;;-144.47;44.71;53271.22;5065596;28;20462;-68
2022/04/28 09:31:37;;;;;;;19.30;10.25;;;;;;;-144.47;44.72;53257.31;5045578;28;20036;-68
2022/04/28 09:34:09;;;;;;;16.40;10.52;;;;;;;-144.47;44.06;53273.22;5060176;28;20028;-69
2022/04/28 09:36:34;;;;;;;24.73;10.55;;;;;;;-144.47;44.07;53277.19;5059222;28;20127;-67
2022/04/28 09:39:00;;;;;;;23.90;10.75;;;;;;;-144.47;43.82;53285.13;5066436;28;20120;-68
2022/04/28 09:44:12;;;;;;;19.95;10.15;;;;;;;-144.47;41.85;53269.22;5053763;28;20068;-67
2022/04/28 09:46:42;;;;;;;17.90;10.32;;;;;;;-144.47;41.83;53291.09;5045369;28;20028;-68
2022/04/28 09:49:10;;;;;;;18.88;9.20;;;;;;;-144.47;40.96;53287.13;5064585;28;20044;-68
2022/04/28 09:51:39;;;;;;;23.10;10.43;;;;;;;-144.47;39.27;53291.09;5065810;28;20016;-68
2022/04/28 09:54:10;;;;;;;16.95;9.95;;;;;;;-144.47;39.59;53265.25;5055727;28;20044;-66
2022/04/28 09:56:38;;;;;;;20.63;9.73;;;;;;;-144.47;40.41;53277.19;5061200;28;20436;-68
2022/04/28 09:59:05;;;;;;;16.92;10.40;;;;;;;-144.47;40.85;53281.16;5060483;28;20064;-67
2022/04/28 10:01:34;;;;;;;22.63;11.63;;;;;;;-144.47;40.78;53285.13;5056472;28;20439;-68
2022/04/28 10:03:59;;;;;;;;;;;;;;;-144.47;40.66;53283.13;5065543;28;20069;-69
2022/04/28 10:06:27;;;;;;;19.60;11.98;;;;;;;-144.47;40.36;53259.31;5066327;28;20363;-69
2022/04/28 10:08:53;;;;;;;16.05;10.45;;;;;;;-144.47;40.53;53269.22;5046956;28;20095;-67
2022/04/28 10:11:22;;;;;;;24.23;11.32;;;;;;;-144.47;40.49;53241.44;5068972;28;20488;-68
2022/04/28 10:13:49;;;;;;;17.88;10.68;;;;;;;-144.47;40.58;53263.28;5053577;28;20136;-69
2022/04/28 10:16:16;;;;;;;19.10;10.63;;;;;;;-144.47;40.51;53267.25;5057946;28;20297;-68
2022/04/28 10:18:48;;;;;;;24.13;10.98;;;;;;;-144.47;40.12;53277.19;5068689;28;20031;-67
2022/04/28 10:21:19;;;;;;;17.52;10.52;;;;;;;-144.47;39.99;53281.16;5041783;28;20029;-67
2022/04/28 10:32:56;;;;;;;21.02;11.10;;;;;;;-144.47;39.96;53259.31;5041387;28;20124;-69
2022/04/28 10:35:38;;;;;;;21.00;10.85;;;;;;;-144.47;40.40;53257.31;5058650;28;20055;-70
2022/04/28 10:38:18;;;;;;;19.60;10.25;;;;;;;-144.47;40.21;53257.31;5061911;28;20466;-67
2022/04/28 10:40:45;;;;;;;32.55;10.90;;;;;;;-144.47;39.46;53257.31;5049338;28;20165;-69
2022/04/28 10:43:32;;;;;;;23.33;11.52;;;;;;;-144.47;39.69;53235.47;5059987;28;20028;-69
2022/04/28 10:45:59;;;;;;;22.38;11.70;;;;;;;-144.47;39.64;53237.44;5064020;28;20031;-69
2022/04/28 10:48:35;;;;;;;21.50;10.80;;;;;;;-144.47;39.67;53283.13;5067785;28;20401;-69
2022/04/28 10:51:12;;;;;;;21.77;11.68;;;;;;;-144.47;39.79;53273.22;5064538;28;20036;-69
2022/04/28 10:54:14;;;;;;;16.67;10.88;;;;;;;-144.47;39.81;53299.03;5064832;28;20047;-68
2022/04/28 10:56:39;;;;;;;16.63;10.50;;;;;;;-144.47;39.57;53237.44;5064757;28;20040;-69
2022/04/28 10:59:37;;;;;;;19.92;10.52;;;;;;;-144.47;39.43;53245.41;5065796;28;20037;-69
2022/04/28 11:02:11;;;;;;;19.27;11.10;;;;;;;-144.47;39.26;53291.09;5057569;28;20410;-68
2022/04/28 11:04:37;;;;;;;18.98;11.20;;;;;;;-144.47;39.38;53227.53;5064284;28;20044;-70
2022/04/28 11:07:12;;;;;;;20.27;11.38;;;;;;;-144.47;39.32;53285.13;5063812;28;20029;-70
2022/04/28 11:09:41;;;;;;;17.60;10.57;;;;;;;-144.47;39.39;53273.22;5063840;28;20067;-68
2022/04/28 11:12:07;;;;;;;22.85;11.52;;;;;;;-144.47;39.11;53247.38;5063610;28;20425;-70
2022/04/28 11:14:43;;;;;;;18.52;11.40;;;;;;;-144.47;39.53;53273.22;5064121;28;20035;-68
2022/04/28 11:17:10;;;;;;;22.48;10.27;;;;;;;-144.47;39.22;53221.56;5069763;28;20055;-70
2022/04/28 11:19:36;;;;;;;19.88;10.45;;;;;;;-144.47;38.96;53293.06;5071446;28;20090;-71
2022/04/28 11:22:01;;;;;;;19.80;10.80;;;;;;;-144.47;38.85;53239.44;5069963;28;20062;-66
2022/04/28 11:24:28;;;;;;;17.80;10.80;;;;;;;-144.47;38.77;53273.22;5065155;28;20037;-69
2022/04/28 11:26:55;;;;;;;22.75;10.45;;;;;;;-144.47;38.28;53259.31;5061266;28;20384;-68
2022/04/28 11:29:22;;;;;;;18.67;11.25;;;;;;;-144.47;38.03;53265.25;5062634;28;20119;-70
2022/04/28 11:31:49;;;;;;;17.92;9.98;;;;;;;-144.47;37.68;53241.44;5041493;28;20028;-70